Time;durP1;ratioP1;P1;durP2;ratioP2;P2;SDS_P1;SDS_P2;PMS_P1;PMS_P2;Temp;Humidity;BMP_temperature;BMP_pressure;BME280_temperature;BME280_humidity;BME280_pressure;Samples;Min_cycle;Max_cycle;Signal;HPM_P1;HPM_P2
2023/05/10 00:02:21;;;;;;;;;;;13.10;99.90;;;;;;5046189;28;19983;-61
2023/05/10 00:04:52;;;;;;;;;;;13.10;99.90;;;;;;5049479;28;19929;-61
2023/05/10 00:07:24;;;;;;;;;;;13.10;99.90;;;;;;5040091;28;19933;-61
2023/05/10 00:09:55;;;;;;;;;;;13.10;99.90;;;;;;5054974;28;20010;-61
2023/05/10 00:12:27;;;;;;;;;;;13.10;99.90;;;;;;5040572;28;19925;-61
2023/05/10 00:14:59;;;;;;;;;;;13.10;99.90;;;;;;5055701;28;19928;-61
2023/05/10 00:17:31;;;;;;;;;;;13.10;99.90;;;;;;5007795;28;19925;-61
2023/05/10 00:20:04;;;;;;;;;;;13.10;99.90;;;;;;5029091;28;20357;-61
2023/05/10 00:22:36;;;;;;;;;;;13.10;99.90;;;;;;5047032;28;19925;-61
2023/05/10 00:25:08;;;;;;;;;;;13.20;99.90;;;;;;5047128;28;20007;-61
2023/05/10 00:27:39;;;;;;;;;;;13.10;99.90;;;;;;5043626;28;19925;-61
2023/05/10 00:30:06;;;;;;;;;;;13.10;99.90;;;;;;5024900;28;19925;-61
2023/05/10 00:32:38;;;;;;;;;;;13.10;99.90;;;;;;5051347;28;19932;-61
2023/05/10 00:35:10;;;;;;;;;;;13.10;99.90;;;;;;5037917;28;19932;-63
2023/05/10 00:37:42;;;;;;;;;;;13.00;99.90;;;;;;5039105;28;19932;-63
2023/05/10 00:40:14;;;;;;;;;;;13.00;99.90;;;;;;5022811;28;19967;-63
2023/05/10 00:42:50;;;;;;;;;;;13.00;99.90;;;;;;5038585;28;19952;-63
2023/05/10 00:45:22;;;;;;;;;;;13.00;99.90;;;;;;5032633;28;19936;-63
2023/05/10 00:47:55;;;;;;;;;;;13.00;99.90;;;;;;5026811;28;19993;-63
2023/05/10 00:50:23;;;;;;;;;;;13.00;99.90;;;;;;5046969;28;19936;-64
2023/05/10 00:52:54;;;;;;;;;;;13.00;99.90;;;;;;5042727;28;19929;-62
2023/05/10 00:55:27;;;;;;;;;;;13.00;99.90;;;;;;5032803;28;19936;-63
2023/05/10 00:57:58;;;;;;;;;;;13.00;99.90;;;;;;5035621;28;19925;-63
2023/05/10 01:00:31;;;;;;;;;;;12.90;99.90;;;;;;5037987;28;19932;-63
2023/05/10 01:03:03;;;;;;;;;;;13.00;99.90;;;;;;5031402;28;19983;-63
2023/05/10 01:05:35;;;;;;;;;;;12.90;99.90;;;;;;5037824;28;19929;-63
2023/05/10 01:08:08;;;;;;;;;;;12.90;99.90;;;;;;5037198;28;19932;-63
2023/05/10 01:10:40;;;;;;;;;;;12.90;99.90;;;;;;5034104;28;19932;-63
2023/05/10 01:13:12;;;;;;;;;;;12.90;99.90;;;;;;5047925;28;19968;-63
2023/05/10 01:15:44;;;;;;;;;;;12.90;99.90;;;;;;5029624;28;19952;-63
2023/05/10 01:18:19;;;;;;;;;;;12.90;99.90;;;;;;5028785;28;19976;-63
2023/05/10 01:20:57;;;;;;;;;;;12.90;99.90;;;;;;5032989;28;20466;-63
2023/05/10 01:23:47;;;;;;;;;;;12.80;99.90;;;;;;5038559;28;20503;-63
2023/05/10 01:26:35;;;;;;;;;;;12.80;99.90;;;;;;5036036;28;19924;-63
2023/05/10 01:29:07;;;;;;;;;;;12.80;99.90;;;;;;5018449;28;19948;-63
2023/05/10 01:31:39;;;;;;;;;;;12.80;99.90;;;;;;5039405;28;20454;-62
2023/05/10 01:34:20;;;;;;;;;;;12.80;99.90;;;;;;5030196;28;19929;-62
2023/05/10 01:37:02;;;;;;;;;;;12.70;99.90;;;;;;5024875;28;19925;-63
2023/05/10 01:39:36;;;;;;;;;;;12.70;99.90;;;;;;5029414;28;19932;-63
2023/05/10 01:42:16;;;;;;;;;;;12.70;99.90;;;;;;5046351;28;19924;-63
2023/05/10 01:44:50;;;;;;;;;;;12.70;99.90;;;;;;5049063;28;20350;-63
2023/05/10 01:47:19;;;;;;;;;;;12.70;99.90;;;;;;5037146;28;20374;-63
2023/05/10 01:49:56;;;;;;;;;;;12.70;99.90;;;;;;5019315;28;20329;-63
2023/05/10 01:52:32;;;;;;;;;;;12.70;99.90;;;;;;5038143;28;19932;-63
2023/05/10 01:55:05;;;;;;;;;;;12.70;99.90;;;;;;5023923;28;19924;-63
2023/05/10 01:57:40;;;;;;;;;;;12.80;99.90;;;;;;5036306;28;19947;-63
2023/05/10 02:00:13;;;;;;;;;;;12.70;99.90;;;;;;5024812;28;19929;-63
2023/05/10 02:02:45;;;;;;;;;;;12.70;99.90;;;;;;5043769;28;19968;-63
2023/05/10 02:05:17;;;;;;;;;;;12.70;99.90;;;;;;5035207;28;19929;-63
2023/05/10 02:07:50;;;;;;;;;;;12.70;99.90;;;;;;5048625;28;20390;-63
2023/05/10 02:10:21;;;;;;;;;;;12.70;99.90;;;;;;5038533;28;20359;-63
2023/05/10 02:12:53;;;;;;;;;;;12.70;99.90;;;;;;5042983;28;19994;-63
2023/05/10 02:15:26;;;;;;;;;;;12.70;99.90;;;;;;5039444;28;19935;-63
2023/05/10 02:17:59;;;;;;;;;;;12.70;99.90;;;;;;5021849;28;19967;-63
2023/05/10 02:20:31;;;;;;;;;;;12.70;99.90;;;;;;5052511;28;19928;-63
2023/05/10 02:23:03;;;;;;;;;;;12.70;99.90;;;;;;5055122;28;19933;-63
2023/05/10 02:25:36;;;;;;;;;;;12.70;99.90;;;;;;5053199;28;19983;-63
2023/05/10 02:28:08;;;;;;;;;;;12.60;99.90;;;;;;5050375;28;19929;-63
2023/05/10 02:30:41;;;;;;;;;;;12.60;99.90;;;;;;5039903;28;19990;-63
2023/05/10 02:33:13;;;;;;;;;;;12.60;99.90;;;;;;5050231;28;19929;-63
2023/05/10 02:35:45;;;;;;;;;;;12.60;99.90;;;;;;5036079;28;20393;-63
2023/05/10 02:38:20;;;;;;;;;;;12.60;99.90;;;;;;5051385;28;19929;-63
2023/05/10 02:40:52;;;;;;;;;;;12.60;99.90;;;;;;5039103;28;20413;-63
2023/05/10 02:43:22;;;;;;;;;;;12.60;99.90;;;;;;5051087;28;19929;-63
2023/05/10 02:45:55;;;;;;;;;;;12.60;99.90;;;;;;5039279;28;19966;-63
2023/05/10 02:48:27;;;;;;;;;;;12.50;99.90;;;;;;5023063;28;19929;-63
2023/05/10 02:51:03;;;;;;;;;;;12.50;99.90;;;;;;5046733;28;19971;-63
2023/05/10 02:53:31;;;;;;;;;;;12.50;99.90;;;;;;5031419;28;19925;-63
2023/05/10 02:56:12;;;;;;;;;;;12.50;99.90;;;;;;5046730;28;20427;-63
2023/05/10 02:58:39;;;;;;;;;;;12.50;99.90;;;;;;5052217;28;19936;-63
2023/05/10 03:01:10;;;;;;;;;;;12.50;99.90;;;;;;5054032;28;19932;-63
2023/05/10 03:03:43;;;;;;;;;;;12.50;99.90;;;;;;5037834;28;19975;-63
2023/05/10 03:06:10;;;;;;;;;;;12.50;99.90;;;;;;5028096;28;20000;-63
2023/05/10 03:08:42;;;;;;;;;;;12.50;99.90;;;;;;5043233;28;19932;-63
2023/05/10 03:11:14;;;;;;;;;;;12.50;99.90;;;;;;5041704;28;19931;-63
2023/05/10 03:13:41;;;;;;;;;;;12.50;99.90;;;;;;5025729;28;19947;-63
2023/05/10 03:16:16;;;;;;;;;;;12.50;99.90;;;;;;5027558;28;19929;-63
2023/05/10 03:18:53;;;;;;;;;;;12.40;99.90;;;;;;5030199;28;20451;-63
2023/05/10 03:21:28;;;;;;;;;;;12.50;99.90;;;;;;5023276;28;19929;-63
2023/05/10 03:24:05;;;;;;;;;;;12.40;99.90;;;;;;5030928;28;19974;-62
2023/05/10 03:26:37;;;;;;;;;;;12.40;99.90;;;;;;5036467;28;20052;-63
2023/05/10 03:29:14;;;;;;;;;;;12.40;99.90;;;;;;5034312;28;19929;-63
2023/05/10 03:31:46;;;;;;;;;;;12.40;99.90;;;;;;5040826;28;19936;-63
2023/05/10 03:34:23;;;;;;;;;;;12.30;99.90;;;;;;5040480;28;19956;-63
2023/05/10 03:36:54;;;;;;;;;;;12.30;99.90;;;;;;5047521;28;19925;-63
2023/05/10 03:39:30;;;;;;;;;;;12.20;99.90;;;;;;5053721;28;19984;-63
2023/05/10 03:42:04;;;;;;;;;;;12.30;99.90;;;;;;5038396;28;20297;-63
2023/05/10 03:44:37;;;;;;;;;;;12.30;99.90;;;;;;5022772;28;20378;-63
2023/05/10 03:47:08;;;;;;;;;;;12.20;99.90;;;;;;5050216;28;19929;-63
2023/05/10 03:49:40;;;;;;;;;;;12.30;99.90;;;;;;5039629;28;19925;-63
2023/05/10 03:52:12;;;;;;;;;;;12.30;99.90;;;;;;5040300;28;19925;-63
2023/05/10 03:54:39;;;;;;;;;;;12.30;99.90;;;;;;5021377;28;19925;-63
2023/05/10 03:57:06;;;;;;;;;;;12.20;99.90;;;;;;5032037;28;19925;-63
2023/05/10 03:59:33;;;;;;;;;;;12.20;99.90;;;;;;5041322;28;19948;-63
2023/05/10 04:02:05;;;;;;;;;;;12.20;99.90;;;;;;5028070;28;20343;-62
2023/05/10 04:04:36;;;;;;;;;;;12.20;99.90;;;;;;5045091;28;19975;-63
2023/05/10 04:07:10;;;;;;;;;;;12.20;99.90;;;;;;5042206;28;19925;-63
2023/05/10 04:09:41;;;;;;;;;;;12.20;99.90;;;;;;5031052;28;19944;-63
2023/05/10 04:12:13;;;;;;;;;;;12.20;99.90;;;;;;5050403;28;19967;-63
2023/05/10 04:14:45;;;;;;;;;;;12.20;99.90;;;;;;5033368;28;19932;-63
2023/05/10 04:17:17;;;;;;;;;;;12.30;99.90;;;;;;5032619;28;19929;-64
2023/05/10 04:19:48;;;;;;;;;;;12.30;99.90;;;;;;5050736;28;19932;-63
2023/05/10 04:22:20;;;;;;;;;;;12.30;99.90;;;;;;5043660;28;19948;-63
2023/05/10 04:24:52;;;;;;;;;;;12.20;99.90;;;;;;5043654;28;20376;-62
2023/05/10 04:27:23;;;;;;;;;;;12.20;99.90;;;;;;5021463;28;20346;-62
2023/05/10 04:29:55;;;;;;;;;;;12.20;99.90;;;;;;5027694;28;19929;-62
2023/05/10 04:32:27;;;;;;;;;;;12.20;99.90;;;;;;5025730;28;19936;-62
2023/05/10 04:34:59;;;;;;;;;;;12.20;99.90;;;;;;5048464;28;20364;-63
2023/05/10 04:37:31;;;;;;;;;;;12.10;99.90;;;;;;5047686;28;20113;-63
2023/05/10 04:40:03;;;;;;;;;;;12.00;99.90;;;;;;5051161;28;19929;-62
2023/05/10 04:42:34;;;;;;;;;;;12.00;99.90;;;;;;5047560;28;20385;-62
2023/05/10 04:45:06;;;;;;;;;;;12.10;99.90;;;;;;5032975;28;19948;-63
2023/05/10 04:47:38;;;;;;;;;;;12.00;99.90;;;;;;5036198;28;19979;-63
2023/05/10 04:50:10;;;;;;;;;;;12.00;99.90;;;;;;5051066;28;20446;-63
2023/05/10 04:52:36;;;;;;;;;;;12.00;99.90;;;;;;5045394;28;19933;-63
2023/05/10 04:55:09;;;;;;;;;;;12.10;99.90;;;;;;5028327;28;19929;-62
2023/05/10 04:57:41;;;;;;;;;;;12.10;99.90;;;;;;5044286;28;19932;-62
2023/05/10 05:00:13;;;;;;;;;;;12.10;99.90;;;;;;5042273;28;19939;-62
2023/05/10 05:02:46;;;;;;;;;;;12.20;99.90;;;;;;5046462;28;19925;-63
2023/05/10 05:05:18;;;;;;;;;;;12.10;99.90;;;;;;5042332;28;19929;-62
2023/05/10 05:07:50;;;;;;;;;;;12.10;99.90;;;;;;5039472;28;19925;-62
2023/05/10 05:10:21;;;;;;;;;;;12.20;99.90;;;;;;5020558;28;19935;-63
2023/05/10 05:12:48;;;;;;;;;;;12.20;99.90;;;;;;5049937;28;19978;-62
2023/05/10 05:15:16;;;;;;;;;;;12.20;99.90;;;;;;5034572;28;19925;-62
2023/05/10 05:17:48;;;;;;;;;;;12.20;99.90;;;;;;5043494;28;19994;-63
2023/05/10 05:20:19;;;;;;;;;;;12.20;99.90;;;;;;5048033;28;19928;-63
2023/05/10 05:22:51;;;;;;;;;;;12.20;99.90;;;;;;5025314;28;19932;-62
2023/05/10 05:25:23;;;;;;;;;;;12.20;99.90;;;;;;5046588;28;20007;-62
2023/05/10 05:27:55;;;;;;;;;;;12.20;99.90;;;;;;5027099;28;19925;-62
2023/05/10 05:30:26;;;;;;;;;;;12.30;99.90;;;;;;5051097;28;20000;-62
2023/05/10 05:32:53;;;;;;;;;;;12.30;99.90;;;;;;5052216;28;19932;-62
2023/05/10 05:35:25;;;;;;;;;;;12.30;99.90;;;;;;5043898;28;19925;-62
2023/05/10 05:37:56;;;;;;;;;;;12.30;99.90;;;;;;5040589;28;19925;-62
2023/05/10 05:40:23;;;;;;;;;;;12.30;99.90;;;;;;5038142;28;19933;-62
2023/05/10 05:42:55;;;;;;;;;;;12.30;99.90;;;;;;5044218;28;19948;-62
2023/05/10 05:45:26;;;;;;;;;;;12.30;99.90;;;;;;5038926;28;20292;-62
2023/05/10 05:47:53;;;;;;;;;;;12.30;99.90;;;;;;5052139;28;19928;-62
2023/05/10 05:50:24;;;;;;;;;;;12.40;99.90;;;;;;5041372;28;19928;-62
2023/05/10 05:52:57;;;;;;;;;;;12.40;99.90;;;;;;5052887;28;20340;-62
2023/05/10 05:55:25;;;;;;;;;;;12.40;99.90;;;;;;5054265;28;19924;-62
2023/05/10 05:57:52;;;;;;;;;;;12.40;99.90;;;;;;5046744;28;19925;-62
2023/05/10 06:00:24;;;;;;;;;;;12.40;99.90;;;;;;5054113;28;19925;-62
2023/05/10 06:02:56;;;;;;;;;;;12.40;99.90;;;;;;5057359;28;19924;-62
2023/05/10 06:05:28;;;;;;;;;;;12.40;99.90;;;;;;5047090;28;19934;-62
2023/05/10 06:08:00;;;;;;;;;;;12.50;99.90;;;;;;5027488;28;19925;-62
2023/05/10 06:10:31;;;;;;;;;;;12.50;99.90;;;;;;5048342;28;19925;-62
2023/05/10 06:13:03;;;;;;;;;;;12.50;99.90;;;;;;5031363;28;19956;-62
2023/05/10 06:15:35;;;;;;;;;;;12.60;99.90;;;;;;5050871;28;19971;-62
2023/05/10 06:18:07;;;;;;;;;;;12.60;99.90;;;;;;5045482;28;19931;-62
2023/05/10 06:20:38;;;;;;;;;;;12.60;99.90;;;;;;5045952;28;19929;-62
2023/05/10 06:23:10;;;;;;;;;;;12.70;99.90;;;;;;5028441;28;19936;-62
2023/05/10 06:25:42;;;;;;;;;;;12.70;99.90;;;;;;5041850;28;19940;-62
2023/05/10 06:28:14;;;;;;;;;;;12.70;99.90;;;;;;5047201;28;19928;-62
2023/05/10 06:30:46;;;;;;;;;;;12.80;99.90;;;;;;5044605;28;19932;-62
2023/05/10 06:33:17;;;;;;;;;;;12.80;99.90;;;;;;5042417;28;19932;-62
2023/05/10 06:35:49;;;;;;;;;;;12.80;99.90;;;;;;5043661;28;19932;-62
2023/05/10 06:38:21;;;;;;;;;;;12.80;99.90;;;;;;5034377;28;19924;-62
2023/05/10 06:40:47;;;;;;;;;;;12.80;99.90;;;;;;5030011;28;19929;-63
2023/05/10 06:43:19;;;;;;;;;;;12.90;99.90;;;;;;5050988;28;19928;-62
2023/05/10 06:45:47;;;;;;;;;;;12.90;99.90;;;;;;5048405;28;19936;-62
2023/05/10 06:48:19;;;;;;;;;;;12.90;99.90;;;;;;5051607;28;20340;-62
2023/05/10 06:50:50;;;;;;;;;;;12.90;99.90;;;;;;5055446;28;19932;-62
2023/05/10 06:53:17;;;;;;;;;;;12.90;99.90;;;;;;5034517;28;20400;-62
2023/05/10 06:55:50;;;;;;;;;;;13.00;99.90;;;;;;5023609;28;19925;-62
2023/05/10 06:58:22;;;;;;;;;;;13.00;99.90;;;;;;5044214;28;19925;-62
2023/05/10 07:00:53;;;;;;;;;;;13.10;99.90;;;;;;5034273;28;20309;-62
2023/05/10 07:03:25;;;;;;;;;;;13.20;99.90;;;;;;5047769;28;20339;-62
2023/05/10 07:05:52;;;;;;;;;;;13.20;99.90;;;;;;5047972;28;20370;-62
2023/05/10 07:08:23;;;;;;;;;;;13.30;99.90;;;;;;5045049;28;19933;-62
2023/05/10 07:11:05;;;;;;;;;;;13.30;99.90;;;;;;5033374;28;19933;-62
2023/05/10 07:13:38;;;;;;;;;;;13.40;99.90;;;;;;5039406;28;20401;-63
2023/05/10 07:16:11;;;;;;;;;;;13.40;99.90;;;;;;5023878;28;19931;-63
2023/05/10 07:18:43;;;;;;;;;;;13.40;99.90;;;;;;5038488;28;19964;-63
2023/05/10 07:21:15;;;;;;;;;;;13.50;99.90;;;;;;5035056;28;19929;-63
2023/05/10 07:23:42;;;;;;;;;;;13.50;99.90;;;;;;5043047;28;19933;-63
2023/05/10 07:26:14;;;;;;;;;;;13.40;99.90;;;;;;5028029;28;20409;-62
2023/05/10 07:28:47;;;;;;;;;;;13.50;99.90;;;;;;5046546;28;20344;-63
2023/05/10 07:31:19;;;;;;;;;;;13.60;99.90;;;;;;5027105;28;19930;-63
2023/05/10 07:33:51;;;;;;;;;;;13.50;99.90;;;;;;5027260;28;20024;-62
2023/05/10 07:36:24;;;;;;;;;;;13.60;99.90;;;;;;5038962;28;20408;-63
2023/05/10 07:38:57;;;;;;;;;;;13.60;99.90;;;;;;5049684;28;20011;-62
2023/05/10 07:41:29;;;;;;;;;;;13.70;99.90;;;;;;5034711;28;20394;-62
2023/05/10 07:44:01;;;;;;;;;;;13.70;99.90;;;;;;5050644;28;19964;-62
2023/05/10 07:46:32;;;;;;;;;;;13.70;99.90;;;;;;5047610;28;19924;-62
2023/05/10 07:49:04;;;;;;;;;;;13.60;99.90;;;;;;5049002;28;20447;-62
2023/05/10 07:51:36;;;;;;;;;;;13.70;99.90;;;;;;5029068;28;19932;-62
2023/05/10 07:54:08;;;;;;;;;;;13.60;99.90;;;;;;5036794;28;19935;-62
2023/05/10 07:56:44;;;;;;;;;;;13.60;99.90;;;;;;5040431;28;19929;-62
2023/05/10 07:59:14;;;;;;;;;;;13.60;99.90;;;;;;5041580;28;19928;-62
2023/05/10 08:01:46;;;;;;;;;;;13.80;99.90;;;;;;5021829;28;19936;-62
2023/05/10 08:04:17;;;;;;;;;;;14.00;99.90;;;;;;5039801;28;19939;-62
2023/05/10 08:06:49;;;;;;;;;;;14.00;99.90;;;;;;5019520;28;19925;-62
2023/05/10 08:09:17;;;;;;;;;;;14.00;99.90;;;;;;5036673;28;19995;-62
2023/05/10 08:11:49;;;;;;;;;;;13.90;99.90;;;;;;5040289;28;20508;-62
2023/05/10 08:14:21;;;;;;;;;;;14.00;99.90;;;;;;5043265;28;19932;-62
2023/05/10 08:16:47;;;;;;;;;;;14.00;99.90;;;;;;5046495;28;19940;-62
2023/05/10 08:19:21;;;;;;;;;;;14.00;99.90;;;;;;5045673;28;19948;-62
2023/05/10 08:21:53;;;;;;;;;;;14.10;99.90;;;;;;5043133;28;19929;-62
2023/05/10 08:24:24;;;;;;;;;;;14.10;99.90;;;;;;5041607;28;20420;-62
2023/05/10 08:26:51;;;;;;;;;;;14.20;99.90;;;;;;5039638;28;19925;-62
2023/05/10 08:29:23;;;;;;;;;;;14.30;99.90;;;;;;5050385;28;19952;-62
2023/05/10 08:31:55;;;;;;;;;;;14.30;99.90;;;;;;5042273;28;19924;-62
2023/05/10 08:34:27;;;;;;;;;;;14.30;99.90;;;;;;5052154;28;19929;-62
2023/05/10 08:36:58;;;;;;;;;;;14.30;99.90;;;;;;5046794;28;19933;-62
2023/05/10 08:39:33;;;;;;;;;;;14.40;99.90;;;;;;5047543;28;19931;-62
2023/05/10 08:42:06;;;;;;;;;;;14.40;99.90;;;;;;5042946;28;20412;-62
2023/05/10 08:44:38;;;;;;;;;;;14.40;99.90;;;;;;5045440;28;19964;-62
2023/05/10 08:47:11;;;;;;;;;;;14.50;99.90;;;;;;5048238;28;19924;-62
2023/05/10 08:49:44;;;;;;;;;;;14.60;99.90;;;;;;5033924;28;19925;-62
2023/05/10 08:52:16;;;;;;;;;;;14.70;99.90;;;;;;5037819;28;20340;-62
2023/05/10 08:54:48;;;;;;;;;;;14.80;99.90;;;;;;5034758;28;19925;-62
2023/05/10 08:57:20;;;;;;;;;;;14.80;99.90;;;;;;5046701;28;19991;-62
2023/05/10 08:59:51;;;;;;;;;;;14.80;99.90;;;;;;5031503;28;19947;-62
2023/05/10 09:02:19;;;;;;;;;;;14.70;99.90;;;;;;5030922;28;20015;-62
2023/05/10 09:04:51;;;;;;;;;;;14.70;99.90;;;;;;5045183;28;19933;-62
2023/05/10 09:07:23;;;;;;;;;;;14.70;99.90;;;;;;5025285;28;19925;-62
2023/05/10 09:09:55;;;;;;;;;;;14.80;99.90;;;;;;5032135;28;20409;-62
2023/05/10 09:12:27;;;;;;;;;;;14.80;99.90;;;;;;5046401;28;19983;-62
2023/05/10 09:14:59;;;;;;;;;;;14.90;99.90;;;;;;5036391;28;19929;-62
2023/05/10 09:17:31;;;;;;;;;;;14.90;99.90;;;;;;5039409;28;19925;-62
2023/05/10 09:20:03;;;;;;;;;;;14.80;99.90;;;;;;5034344;28;19964;-62
2023/05/10 09:22:35;;;;;;;;;;;14.80;99.90;;;;;;5039822;28;19929;-62
2023/05/10 09:25:07;;;;;;;;;;;14.90;99.90;;;;;;5044545;28;19933;-62
2023/05/10 09:27:40;;;;;;;;;;;14.90;99.90;;;;;;5049183;28;20024;-62
2023/05/10 09:30:30;;;;;;;;;;;15.00;99.90;;;;;;5030899;28;20504;-62
2023/05/10 09:33:02;;;;;;;;;;;15.00;99.90;;;;;;5048731;28;20380;-62
2023/05/10 09:35:30;;;;;;;;;;;15.00;99.90;;;;;;5032986;28;19935;-62
2023/05/10 09:37:59;;;;;;;;;;;14.90;99.90;;;;;;5046169;28;19925;-62
2023/05/10 09:40:31;;;;;;;;;;;15.00;99.90;;;;;;5053222;28;19925;-62
2023/05/10 09:43:05;;;;;;;;;;;15.00;99.90;;;;;;5040780;28;19968;-62
2023/05/10 09:45:37;;;;;;;;;;;15.00;99.90;;;;;;5023866;28;19971;-62
2023/05/10 09:48:09;;;;;;;;;;;15.00;99.90;;;;;;5036049;28;20009;-62
2023/05/10 09:50:41;;;;;;;;;;;15.00;99.90;;;;;;5049898;28;19929;-62
2023/05/10 09:53:14;;;;;;;;;;;14.90;99.90;;;;;;5034005;28;20618;-62
2023/05/10 09:55:46;;;;;;;;;;;15.00;99.90;;;;;;5049228;28;19929;-62
2023/05/10 09:58:18;;;;;;;;;;;15.00;99.90;;;;;;5047853;28;19925;-63
2023/05/10 10:00:52;;;;;;;;;;;15.10;99.90;;;;;;5043076;28;19960;-62
2023/05/10 10:03:24;;;;;;;;;;;15.10;99.90;;;;;;5045026;28;19924;-62
2023/05/10 10:05:56;;;;;;;;;;;15.20;99.90;;;;;;5048048;28;19925;-62
2023/05/10 10:08:28;;;;;;;;;;;15.20;99.90;;;;;;5044013;28;19929;-62
2023/05/10 10:11:00;;;;;;;;;;;15.20;99.90;;;;;;5042875;28;19929;-62
2023/05/10 10:13:32;;;;;;;;;;;15.20;99.90;;;;;;5039557;28;19933;-62
2023/05/10 10:16:03;;;;;;;;;;;15.20;99.90;;;;;;5023125;28;19929;-62
2023/05/10 10:18:30;;;;;;;;;;;15.20;99.90;;;;;;5042392;28;20382;-62
2023/05/10 10:21:02;;;;;;;;;;;15.30;99.90;;;;;;5043988;28;19932;-62
2023/05/10 10:23:37;;;;;;;;;;;15.30;99.90;;;;;;5047319;28;19928;-62
2023/05/10 10:26:10;;;;;;;;;;;15.40;99.90;;;;;;5046406;28;19925;-62
2023/05/10 10:28:45;;;;;;;;;;;15.40;99.90;;;;;;5036682;28;19978;-62
2023/05/10 10:31:24;;;;;;;;;;;15.40;99.90;;;;;;5040543;28;20313;-62
2023/05/10 10:33:55;;;;;;;;;;;15.40;99.90;;;;;;5041526;28;20033;-62
2023/05/10 10:36:27;;;;;;;;;;;15.40;99.90;;;;;;5041631;28;20325;-62
2023/05/10 10:39:08;;;;;;;;;;;15.40;99.90;;;;;;5049106;28;19931;-62
2023/05/10 10:41:35;;;;;;;;;;;15.40;99.90;;;;;;5047082;28;19936;-62
2023/05/10 10:44:25;;;;;;;;;;;15.60;99.90;;;;;;5044896;28;19939;-62
2023/05/10 10:47:02;;;;;;;;;;;15.60;99.90;;;;;;5033646;28;19924;-62
2023/05/10 10:49:39;;;;;;;;;;;15.60;99.90;;;;;;5050596;28;20364;-62
2023/05/10 10:52:16;;;;;;;;;;;15.60;99.90;;;;;;5033916;28;19932;-65
2023/05/10 10:55:10;;;;;;;;;;;15.50;99.90;;;;;;5041531;28;19979;-62
2023/05/10 10:57:47;;;;;;;;;;;15.40;99.90;;;;;;5034676;28;19925;-62
2023/05/10 11:00:22;;;;;;;;;;;15.40;99.90;;;;;;5043114;28;19936;-63
2023/05/10 11:02:55;;;;;;;;;;;15.30;99.90;;;;;;5047255;28;20405;-62
2023/05/10 11:05:22;;;;;;;;;;;15.20;99.90;;;;;;5042480;28;20317;-62
2023/05/10 11:07:55;;;;;;;;;;;15.20;99.90;;;;;;5044185;28;20393;-62
2023/05/10 11:10:27;;;;;;;;;;;15.10;99.90;;;;;;5045557;28;19925;-62
2023/05/10 11:13:01;;;;;;;;;;;15.20;99.90;;;;;;5047229;28;20397;-62
2023/05/10 11:15:34;;;;;;;;;;;15.20;99.90;;;;;;5045440;28;19933;-62
2023/05/10 11:18:23;;;;;;;;;;;15.30;99.90;;;;;;5039042;28;19948;-62
2023/05/10 11:20:51;;;;;;;;;;;15.30;99.90;;;;;;5041545;28;19928;-62
2023/05/10 11:23:23;;;;;;;;;;;15.40;99.90;;;;;;5048084;28;20526;-62
2023/05/10 11:25:55;;;;;;;;;;;15.40;99.90;;;;;;5042330;28;20001;-62
2023/05/10 11:28:27;;;;;;;;;;;15.40;99.90;;;;;;5036997;28;19925;-62
2023/05/10 11:30:55;;;;;;;;;;;15.50;99.90;;;;;;5042180;28;20454;-62
2023/05/10 11:33:26;;;;;;;;;;;15.50;99.90;;;;;;5045333;28;19925;-62
2023/05/10 11:35:58;;;;;;;;;;;15.50;99.90;;;;;;5029284;28;19933;-62
2023/05/10 11:38:25;;;;;;;;;;;15.40;99.90;;;;;;5045227;28;19924;-62
2023/05/10 11:40:56;;;;;;;;;;;15.50;99.90;;;;;;5029314;28;19929;-62
2023/05/10 11:43:30;;;;;;;;;;;15.60;99.90;;;;;;5044666;28;20360;-62
2023/05/10 11:46:02;;;;;;;;;;;15.60;99.90;;;;;;5041737;28;19932;-62
2023/05/10 11:48:34;;;;;;;;;;;15.60;99.90;;;;;;5035112;28;19936;-62
2023/05/10 11:51:06;;;;;;;;;;;15.60;99.90;;;;;;5017028;28;20367;-63
2023/05/10 11:53:38;;;;;;;;;;;15.60;99.90;;;;;;5036451;28;19929;-62
2023/05/10 11:56:10;;;;;;;;;;;15.70;99.90;;;;;;5047156;28;19928;-62
2023/05/10 11:58:38;;;;;;;;;;;15.70;99.90;;;;;;5045119;28;20385;-62
2023/05/10 12:01:10;;;;;;;;;;;15.70;99.90;;;;;;5045219;28;19932;-62
2023/05/10 12:03:42;;;;;;;;;;;15.60;99.90;;;;;;5044313;28;19932;-62
2023/05/10 12:06:13;;;;;;;;;;;15.60;99.90;;;;;;5031119;28;19928;-62
2023/05/10 12:08:46;;;;;;;;;;;15.70;99.90;;;;;;5048578;28;19925;-62
2023/05/10 12:11:19;;;;;;;;;;;15.70;99.90;;;;;;5045656;28;19975;-62
2023/05/10 12:13:51;;;;;;;;;;;15.70;99.90;;;;;;5040724;28;19933;-62
2023/05/10 12:16:24;;;;;;;;;;;15.80;99.90;;;;;;5020294;28;19951;-62
2023/05/10 12:18:57;;;;;;;;;;;15.80;99.90;;;;;;5037259;28;19925;-62
2023/05/10 12:21:30;;;;;;;;;;;15.80;99.90;;;;;;5025677;28;20027;-62
2023/05/10 12:24:03;;;;;;;;;;;15.80;99.90;;;;;;5050130;28;19940;-62
2023/05/10 12:26:35;;;;;;;;;;;15.90;99.90;;;;;;5046698;28;20423;-62
2023/05/10 12:29:16;;;;;;;;;;;15.90;99.90;;;;;;5050392;28;19932;-62
2023/05/10 12:31:50;;;;;;;;;;;16.00;99.90;;;;;;5043948;28;19929;-62
2023/05/10 12:34:23;;;;;;;;;;;15.90;99.90;;;;;;5038048;28;20032;-63
2023/05/10 12:36:55;;;;;;;;;;;15.90;99.90;;;;;;5045676;28;20169;-62
2023/05/10 12:39:22;;;;;;;;;;;15.90;99.90;;;;;;5035049;28;19940;-62
2023/05/10 12:41:53;;;;;;;;;;;15.80;99.90;;;;;;5026320;28;19929;-62
2023/05/10 12:44:25;;;;;;;;;;;15.70;99.90;;;;;;5047273;28;19925;-62
2023/05/10 12:46:57;;;;;;;;;;;15.80;99.90;;;;;;5041962;28;19929;-62
2023/05/10 12:49:24;;;;;;;;;;;15.70;99.90;;;;;;5044667;28;19933;-62
2023/05/10 12:51:56;;;;;;;;;;;15.50;99.90;;;;;;5027996;28;19932;-62
2023/05/10 12:54:28;;;;;;;;;;;15.20;99.90;;;;;;5043461;28;19925;-62
2023/05/10 12:56:59;;;;;;;;;;;15.00;99.90;;;;;;5035603;28;19979;-62
2023/05/10 12:59:31;;;;;;;;;;;14.70;99.90;;;;;;5044977;28;19932;-62
2023/05/10 13:02:03;;;;;;;;;;;14.50;99.90;;;;;;5046262;28;20482;-62
2023/05/10 13:04:34;;;;;;;;;;;14.30;99.90;;;;;;5031140;28;19933;-63
2023/05/10 13:07:06;;;;;;;;;;;14.20;99.90;;;;;;5026628;28;20371;-63
2023/05/10 13:09:38;;;;;;;;;;;13.90;99.90;;;;;;5023547;28;19933;-63
2023/05/10 13:12:05;;;;;;;;;;;13.50;99.90;;;;;;5043007;28;19925;-63
2023/05/10 13:14:37;;;;;;;;;;;13.30;99.90;;;;;;5047735;28;20441;-63
2023/05/10 13:17:08;;;;;;;;;;;13.20;99.90;;;;;;5046280;28;19979;-63
2023/05/10 13:19:40;;;;;;;;;;;13.10;99.90;;;;;;5048125;28;19928;-63
2023/05/10 13:22:12;;;;;;;;;;;12.90;99.90;;;;;;5039447;28;19925;-63
2023/05/10 13:24:44;;;;;;;;;;;12.90;99.90;;;;;;5043074;28;19932;-63
2023/05/10 13:27:16;;;;;;;;;;;12.90;99.90;;;;;;5039556;28;20666;-63
2023/05/10 13:29:47;;;;;;;;;;;12.90;99.90;;;;;;5023043;28;20416;-63
2023/05/10 13:32:19;;;;;;;;;;;12.90;99.90;;;;;;5041104;28;19929;-63
2023/05/10 13:34:51;;;;;;;;;;;12.90;99.90;;;;;;5043633;28;19929;-63
2023/05/10 13:37:23;;;;;;;;;;;12.90;99.90;;;;;;5044139;28;19928;-63
2023/05/10 13:39:54;;;;;;;;;;;12.90;99.90;;;;;;5030720;28;19928;-63
2023/05/10 13:42:26;;;;;;;;;;;12.90;99.90;;;;;;5047573;28;20397;-63
2023/05/10 13:44:53;;;;;;;;;;;12.90;99.90;;;;;;5049473;28;19925;-63
2023/05/10 13:47:25;;;;;;;;;;;12.90;99.90;;;;;;5043183;28;19976;-63
2023/05/10 13:49:57;;;;;;;;;;;12.90;99.90;;;;;;5027037;28;19929;-63
2023/05/10 13:52:29;;;;;;;;;;;12.80;99.90;;;;;;5040438;28;20378;-63
2023/05/10 13:55:01;;;;;;;;;;;12.80;99.90;;;;;;5044254;28;19999;-63
2023/05/10 13:57:34;;;;;;;;;;;12.80;99.90;;;;;;5031339;28;20436;-63
2023/05/10 14:00:06;;;;;;;;;;;12.70;99.90;;;;;;5039011;28;20290;-63
2023/05/10 14:02:38;;;;;;;;;;;12.70;99.90;;;;;;5033227;28;19925;-63
2023/05/10 14:05:09;;;;;;;;;;;12.70;99.90;;;;;;5033999;28;19932;-63
2023/05/10 14:07:41;;;;;;;;;;;12.70;99.90;;;;;;5047847;28;19937;-61
2023/05/10 14:10:13;;;;;;;;;;;12.70;99.90;;;;;;5051347;28;19952;-63
2023/05/10 14:12:45;;;;;;;;;;;12.80;99.90;;;;;;5048396;28;19944;-63
2023/05/10 14:15:16;;;;;;;;;;;12.80;99.90;;;;;;5046153;28;19951;-64
2023/05/10 14:17:48;;;;;;;;;;;12.90;99.90;;;;;;5031580;28;19933;-63
2023/05/10 14:20:20;;;;;;;;;;;12.90;99.90;;;;;;5030818;28;19925;-63
2023/05/10 14:22:51;;;;;;;;;;;12.90;99.90;;;;;;5049290;28;20055;-63
2023/05/10 14:25:23;;;;;;;;;;;12.90;99.90;;;;;;5053729;28;19932;-63
2023/05/10 14:27:55;;;;;;;;;;;12.90;99.90;;;;;;5053433;28;20317;-63
2023/05/10 14:30:26;;;;;;;;;;;13.00;99.90;;;;;;5042357;28;19925;-64
2023/05/10 14:32:58;;;;;;;;;;;13.00;99.90;;;;;;5052671;28;19928;-63
2023/05/10 14:35:25;;;;;;;;;;;13.10;99.90;;;;;;5049198;28;19999;-63
2023/05/10 14:37:57;;;;;;;;;;;13.00;99.90;;;;;;5032378;28;19974;-63
2023/05/10 14:40:29;;;;;;;;;;;12.90;99.90;;;;;;5022859;28;19932;-63
2023/05/10 14:43:01;;;;;;;;;;;12.80;99.90;;;;;;5037269;28;19980;-63
2023/05/10 14:45:32;;;;;;;;;;;12.60;99.90;;;;;;5045932;28;19979;-62